WARNING - Change wsUserSettings.php: $SITE["topfolder"] from : weather28m/ to: ./
Welkom op onze website -
Gegevens meteorieten voor 2019 onder zon aarde ruimte


Webcam zuid Meer informatie Webcam zuid


Webcam noord Meer informatie Webcam noord


Onweer radar Meer informatie blitzortung!


Regen radar Meer informatie rain snow radar


Bezoek onze andere website:

Template documentation
and downloads

Onze andere website


U vindt ons ook hier:

Het Weer Aktueel

UK Metoffice

European Weather Network

WeatherCloud

Weather Underground

Austria Weather Network

AWEKAS

Citizen Weather Observer Program (CWOP)

HAMweather, WeatherForYou, PWS Weather

Wetterpage 24

Roosendaal op internet

VWKWEB

RadioZuidWestFM



Extreme hitte van: 26-06-2019 09:00 tot: 23:00 waarschuwing voor: Extreme hitte niveau: Geel info button
Het Nationaal Hitteplan van het RIVM is geactiveerd voor het midden, zuiden en oosten van het land, daarom is daar nu een code geel voor aanhoudende hitte van kracht.Er is sprake van aanhoudende hitte.Besteed extra zorg en aandacht aan kwetsbare mensen in uw omgeving.Met name ouderen en mensen met een chronische aandoening wordt geadviseerd maatregelen te nemen: drink voldoende, houd uzelf en uw woning koel.

METAR rapporten vliegvelden

   
EHWO - Bergen op Zoom
Gewijzigd: 26-06-2019 12:55
Licht bewolkt  
Licht bewolkt  
   Wind: NNO 14.8 km/h
Wind: NNO 14.8 km/h
Temperatuur: 22°C
Dauwpunt: 17°C
Vochtigheid: 73%
Barometer: 1025 hPa
Bewolking: Licht bewolkt
Zicht: meer dan 10 km
Bewolking: Licht bewolkt 1800 ft
EHWO 261055Z AUTO 02008KT 300V060 9999 FEW018 22/17 Q1025 BLU 01007KT 9999 FEW019
EHWO - Woensdrecht
Gewijzigd: 26-06-2019 12:55
Licht bewolkt  
Licht bewolkt  
   Wind: NNO 14.8 km/h
Wind: NNO 14.8 km/h
Temperatuur: 22°C
Dauwpunt: 17°C
Vochtigheid: 73%
Barometer: 1025 hPa
Bewolking: Licht bewolkt
Zicht: meer dan 10 km
Bewolking: Licht bewolkt 1800 ft
EHWO 261055Z AUTO 02008KT 300V060 9999 FEW018 22/17 Q1025 BLU 01007KT 9999 FEW019
EHWO - Steenbergen
Gewijzigd: 26-06-2019 12:55
Licht bewolkt  
Licht bewolkt  
   Wind: NNO 14.8 km/h
Wind: NNO 14.8 km/h
Temperatuur: 22°C
Dauwpunt: 17°C
Vochtigheid: 73%
Barometer: 1025 hPa
Bewolking: Licht bewolkt
Zicht: meer dan 10 km
Bewolking: Licht bewolkt 1800 ft
EHWO 261055Z AUTO 02008KT 300V060 9999 FEW018 22/17 Q1025 BLU 01007KT 9999 FEW019
EHWO - Oud-Gastel
Gewijzigd: 26-06-2019 12:55
Licht bewolkt  
Licht bewolkt  
   Wind: NNO 14.8 km/h
Wind: NNO 14.8 km/h
Temperatuur: 22°C
Dauwpunt: 17°C
Vochtigheid: 73%
Barometer: 1025 hPa
Bewolking: Licht bewolkt
Zicht: meer dan 10 km
Bewolking: Licht bewolkt 1800 ft
EHWO 261055Z AUTO 02008KT 300V060 9999 FEW018 22/17 Q1025 BLU 01007KT 9999 FEW019
EHWO - Oudenbosch
Gewijzigd: 26-06-2019 12:55
Licht bewolkt  
Licht bewolkt  
   Wind: NNO 14.8 km/h
Wind: NNO 14.8 km/h
Temperatuur: 22°C
Dauwpunt: 17°C
Vochtigheid: 73%
Barometer: 1025 hPa
Bewolking: Licht bewolkt
Zicht: meer dan 10 km
Bewolking: Licht bewolkt 1800 ft
EHWO 261055Z AUTO 02008KT 300V060 9999 FEW018 22/17 Q1025 BLU 01007KT 9999 FEW019
EHWO - Rucphen
Gewijzigd: 26-06-2019 12:55
Licht bewolkt  
Licht bewolkt  
   Wind: NNO 14.8 km/h
Wind: NNO 14.8 km/h
Temperatuur: 22°C
Dauwpunt: 17°C
Vochtigheid: 73%
Barometer: 1025 hPa
Bewolking: Licht bewolkt
Zicht: meer dan 10 km
Bewolking: Licht bewolkt 1800 ft
EHWO 261055Z AUTO 02008KT 300V060 9999 FEW018 22/17 Q1025 BLU 01007KT 9999 FEW019
EHWO - Bergen op Zoom
Gewijzigd: 26-06-2019 12:55
Licht bewolkt  
Licht bewolkt  
   Wind: NNO 14.8 km/h
Wind: NNO 14.8 km/h
Temperatuur: 22°C
Dauwpunt: 17°C
Vochtigheid: 73%
Barometer: 1025 hPa
Bewolking: Licht bewolkt
Zicht: meer dan 10 km
Bewolking: Licht bewolkt 1800 ft
EHWO 261055Z AUTO 02008KT 300V060 9999 FEW018 22/17 Q1025 BLU 01007KT 9999 FEW019
EHWO - Fijnaart
Gewijzigd: 26-06-2019 12:55
Licht bewolkt  
Licht bewolkt  
   Wind: NNO 14.8 km/h
Wind: NNO 14.8 km/h
Temperatuur: 22°C
Dauwpunt: 17°C
Vochtigheid: 73%
Barometer: 1025 hPa
Bewolking: Licht bewolkt
Zicht: meer dan 10 km
Bewolking: Licht bewolkt 1800 ft
EHWO 261055Z AUTO 02008KT 300V060 9999 FEW018 22/17 Q1025 BLU 01007KT 9999 FEW019
EHWO - Ossendrecht
Gewijzigd: 26-06-2019 12:55
Licht bewolkt  
Licht bewolkt  
   Wind: NNO 14.8 km/h
Wind: NNO 14.8 km/h
Temperatuur: 22°C
Dauwpunt: 17°C
Vochtigheid: 73%
Barometer: 1025 hPa
Bewolking: Licht bewolkt
Zicht: meer dan 10 km
Bewolking: Licht bewolkt 1800 ft
EHWO 261055Z AUTO 02008KT 300V060 9999 FEW018 22/17 Q1025 BLU 01007KT 9999 FEW019

Script ontwikkeld door  Saratoga-weather.org Aangepast voor de template door  Weerstation Leuven

Apparatuur in gebruik:

Weerstation
Davis VP2

Weerprogramma
Meteobridge

Weercomputer
Shuttle

Webleverancier
WeservIT

Davis VP2

Meteobridge

Shuttle

WeservIT